createdAt,value
2019-06-26T00:01:06.963Z,22.80
2019-06-26T00:03:35.885Z,22.80
2019-06-26T00:06:04.972Z,22.80
2019-06-26T00:08:33.770Z,22.70
2019-06-26T00:11:02.655Z,22.70
2019-06-26T00:13:31.498Z,22.70
2019-06-26T00:16:00.741Z,22.70
2019-06-26T00:18:29.760Z,22.70
2019-06-26T00:20:58.659Z,22.70
2019-06-26T00:23:27.546Z,22.70
2019-06-26T00:25:56.411Z,22.70
2019-06-26T00:28:25.256Z,22.60
2019-06-26T00:30:54.270Z,22.60
2019-06-26T00:33:23.101Z,22.60
2019-06-26T00:35:52.213Z,22.60
2019-06-26T00:38:21.086Z,22.60
2019-06-26T00:40:50.054Z,22.60
2019-06-26T00:43:18.928Z,22.60
2019-06-26T00:45:48.002Z,22.50
2019-06-26T00:48:16.788Z,22.50
2019-06-26T00:50:45.605Z,22.50
2019-06-26T00:53:14.490Z,22.50
2019-06-26T00:55:43.425Z,22.50
2019-06-26T00:58:12.488Z,22.50
2019-06-26T01:00:45.998Z,22.50
2019-06-26T01:03:15.019Z,22.50
2019-06-26T01:05:43.908Z,22.40
2019-06-26T01:08:12.756Z,22.40
2019-06-26T01:10:41.705Z,22.40
2019-06-26T01:13:10.554Z,22.40
2019-06-26T01:15:39.486Z,22.40
2019-06-26T01:18:08.562Z,22.30
2019-06-26T01:20:37.472Z,22.30
2019-06-26T01:23:06.343Z,22.30
2019-06-26T01:25:35.272Z,22.30
2019-06-26T01:28:04.276Z,22.30
2019-06-26T01:30:33.492Z,22.30
2019-06-26T01:33:02.715Z,22.20
2019-06-26T01:35:31.644Z,22.20
2019-06-26T01:38:00.606Z,22.20
2019-06-26T01:40:31.705Z,22.20
2019-06-26T01:43:00.523Z,22.20
2019-06-26T01:45:29.787Z,22.20
2019-06-26T01:47:58.678Z,22.10
2019-06-26T01:50:27.516Z,22.10
2019-06-26T01:52:56.485Z,22.10
2019-06-26T01:55:25.354Z,22.10
2019-06-26T01:57:54.417Z,22.10
2019-06-26T02:00:23.308Z,22.10
2019-06-26T02:02:52.337Z,22.10
2019-06-26T02:05:21.329Z,22.10
2019-06-26T02:07:50.225Z,22.10
2019-06-26T02:10:19.514Z,22.10
2019-06-26T02:12:48.405Z,22.10
2019-06-26T02:15:17.362Z,22.10
2019-06-26T02:17:46.257Z,22.00
2019-06-26T02:20:15.189Z,22.00
2019-06-26T02:22:44.162Z,22.00
2019-06-26T02:25:13.537Z,22.00
2019-06-26T02:27:42.458Z,22.00
2019-06-26T02:30:11.487Z,22.00
2019-06-26T02:32:40.718Z,22.00
2019-06-26T02:35:10.748Z,22.00
2019-06-26T02:37:39.839Z,21.90
2019-06-26T02:40:09.603Z,21.90
2019-06-26T02:42:38.671Z,21.90
2019-06-26T02:45:07.687Z,21.90
2019-06-26T02:47:36.762Z,21.90
2019-06-26T02:50:06.156Z,21.90
2019-06-26T02:52:35.070Z,21.90
2019-06-26T02:55:04.308Z,21.90
2019-06-26T02:57:33.210Z,21.90
2019-06-26T03:00:02.231Z,21.90
2019-06-26T03:02:31.228Z,21.90
2019-06-26T03:05:00.154Z,21.90
2019-06-26T03:07:28.997Z,21.90
2019-06-26T03:09:57.890Z,21.80
2019-06-26T03:12:26.784Z,21.80
2019-06-26T03:15:08.256Z,21.80
2019-06-26T03:17:26.254Z,21.80
2019-06-26T03:19:55.352Z,21.90
2019-06-26T03:22:24.140Z,21.90
2019-06-26T03:24:52.922Z,21.80
2019-06-26T03:27:22.244Z,21.90
2019-06-26T03:29:51.082Z,21.90
2019-06-26T03:32:19.876Z,21.90
2019-06-26T03:34:48.641Z,21.90
2019-06-26T03:37:17.435Z,22.00
2019-06-26T03:39:46.370Z,22.00
2019-06-26T03:42:15.225Z,22.00
2019-06-26T03:44:44.118Z,22.10
2019-06-26T03:47:12.931Z,22.10
2019-06-26T03:49:41.824Z,22.10
2019-06-26T03:52:10.752Z,22.10
2019-06-26T03:54:39.810Z,22.20
2019-06-26T03:57:08.645Z,22.20
2019-06-26T03:59:37.547Z,22.30
2019-06-26T04:02:06.415Z,22.30
2019-06-26T04:04:35.150Z,22.30
2019-06-26T04:07:03.996Z,22.40
2019-06-26T04:09:32.829Z,22.40
2019-06-26T04:12:01.596Z,22.50
2019-06-26T04:14:30.492Z,22.50
2019-06-26T04:16:59.292Z,22.60
2019-06-26T04:19:28.185Z,22.60
2019-06-26T04:21:57.021Z,22.70
2019-06-26T04:24:25.839Z,22.80
2019-06-26T04:26:54.608Z,22.80
2019-06-26T04:29:23.644Z,22.90
2019-06-26T04:31:52.467Z,23.00
2019-06-26T04:34:23.261Z,23.00
2019-06-26T04:36:52.288Z,23.10
2019-06-26T04:39:21.182Z,23.20
2019-06-26T04:41:50.141Z,23.30
2019-06-26T04:44:19.013Z,23.30
2019-06-26T04:46:47.865Z,23.40
2019-06-26T04:49:16.781Z,23.50
2019-06-26T04:51:48.395Z,23.60
2019-06-26T04:54:17.149Z,23.60
2019-06-26T04:56:46.173Z,23.70
2019-06-26T04:59:15.021Z,23.80
2019-06-26T05:01:43.806Z,23.80
2019-06-26T05:04:12.955Z,23.90
2019-06-26T05:06:41.852Z,24.00
2019-06-26T05:09:10.766Z,24.10
2019-06-26T05:11:39.569Z,24.10
2019-06-26T05:14:08.502Z,24.20
2019-06-26T05:16:37.507Z,24.30
2019-06-26T05:19:06.527Z,24.40
2019-06-26T05:21:35.348Z,24.60
2019-06-26T05:24:04.335Z,24.70
2019-06-26T05:26:33.458Z,24.90
2019-06-26T05:29:02.381Z,25.10
2019-06-26T05:31:31.477Z,25.30
2019-06-26T05:34:00.438Z,25.60
2019-06-26T05:36:29.244Z,25.80
2019-06-26T05:38:58.149Z,25.90
2019-06-26T05:41:27.149Z,26.00
2019-06-26T05:43:56.097Z,26.00
2019-06-26T05:46:31.222Z,26.10
2019-06-26T05:48:55.526Z,26.20
2019-06-26T05:51:46.744Z,26.20
2019-06-26T05:54:15.684Z,26.20
2019-06-26T05:59:37.165Z,26.40
2019-06-26T06:02:06.390Z,26.40
2019-06-26T06:04:35.633Z,26.50
2019-06-26T06:07:05.155Z,26.60
2019-06-26T06:09:34.086Z,26.80
2019-06-26T06:12:03.341Z,26.80
2019-06-26T06:14:32.473Z,26.80
2019-06-26T06:17:01.763Z,26.90
2019-06-26T06:19:30.709Z,27.10
2019-06-26T06:21:59.889Z,27.20
2019-06-26T06:24:29.029Z,27.20
2019-06-26T06:26:58.015Z,27.30
2019-06-26T06:29:29.937Z,27.40
2019-06-26T06:31:57.697Z,27.40
2019-06-26T06:34:26.551Z,27.40
2019-06-26T06:36:55.599Z,27.50
2019-06-26T06:39:24.739Z,27.50
2019-06-26T06:41:53.781Z,27.60
2019-06-26T06:44:23.041Z,27.70
2019-06-26T06:47:03.347Z,27.80
2019-06-26T06:49:23.121Z,27.80
2019-06-26T06:51:52.315Z,27.70
2019-06-26T06:54:21.618Z,27.80
2019-06-26T06:56:50.735Z,27.80
2019-06-26T06:59:19.790Z,27.80
2019-06-26T07:01:48.817Z,27.80
2019-06-26T07:04:17.848Z,27.80
2019-06-26T07:06:46.864Z,27.80
2019-06-26T07:09:17.604Z,27.80
2019-06-26T07:11:46.770Z,27.90
2019-06-26T07:14:16.046Z,27.80
2019-06-26T07:16:45.370Z,27.80
2019-06-26T07:19:14.836Z,27.70
2019-06-26T07:21:48.002Z,27.70
2019-06-26T07:24:17.081Z,27.70
2019-06-26T07:26:46.402Z,27.70
2019-06-26T07:29:15.811Z,27.70
2019-06-26T07:31:45.094Z,27.70
2019-06-26T07:34:14.411Z,27.80
2019-06-26T07:36:43.311Z,27.80
2019-06-26T07:39:12.410Z,27.80
2019-06-26T07:41:41.416Z,27.90
2019-06-26T07:44:10.393Z,28.00
2019-06-26T07:46:39.513Z,28.00
2019-06-26T07:49:09.765Z,28.10
2019-06-26T07:51:39.024Z,28.10
2019-06-26T07:54:08.115Z,28.10
2019-06-26T07:56:37.472Z,28.20
2019-06-26T07:59:06.733Z,28.20
2019-06-26T08:01:35.710Z,28.20
2019-06-26T08:04:04.780Z,28.40
2019-06-26T08:06:33.696Z,28.40
2019-06-26T08:09:02.800Z,28.40
2019-06-26T08:11:31.986Z,28.40
2019-06-26T08:14:01.266Z,28.40
2019-06-26T08:16:33.555Z,28.50
2019-06-26T08:19:02.313Z,28.50
2019-06-26T08:21:34.556Z,28.50
2019-06-26T08:24:03.475Z,28.40
2019-06-26T08:26:32.501Z,28.40
2019-06-26T08:29:01.776Z,28.40
2019-06-26T08:31:30.595Z,28.40
2019-06-26T08:33:59.451Z,28.40
2019-06-26T08:36:33.297Z,28.30
2019-06-26T08:39:04.566Z,28.30
2019-06-26T08:41:33.585Z,28.40
2019-06-26T08:44:02.466Z,28.50
2019-06-26T08:46:31.401Z,28.50
2019-06-26T08:49:00.301Z,28.50
2019-06-26T08:51:29.256Z,28.40
2019-06-26T08:53:58.123Z,28.40
2019-06-26T08:56:26.918Z,28.50
2019-06-26T08:58:56.157Z,28.50
2019-06-26T09:01:25.095Z,28.50
2019-06-26T09:03:54.013Z,28.50
2019-06-26T09:06:23.590Z,28.60
2019-06-26T09:08:52.500Z,28.60
2019-06-26T09:11:21.505Z,28.60
2019-06-26T09:13:50.620Z,28.70
2019-06-26T09:16:19.593Z,28.80
2019-06-26T09:18:48.642Z,28.80
2019-06-26T09:21:17.954Z,28.90
2019-06-26T09:23:46.918Z,28.90
2019-06-26T09:26:15.877Z,28.80
2019-06-26T09:28:46.065Z,28.80
2019-06-26T09:31:15.110Z,28.80
2019-06-26T09:33:44.313Z,28.90
2019-06-26T09:36:13.930Z,28.70
2019-06-26T09:38:45.962Z,28.70
2019-06-26T09:41:15.143Z,28.70
2019-06-26T09:43:44.361Z,28.80
2019-06-26T09:46:13.417Z,28.80
2019-06-26T09:48:52.492Z,28.80
2019-06-26T09:51:13.283Z,28.80
2019-06-26T09:53:47.506Z,28.90
2019-06-26T09:56:13.563Z,28.80
2019-06-26T09:58:42.568Z,28.80
2019-06-26T10:01:11.561Z,28.70
2019-06-26T10:03:40.754Z,28.70
2019-06-26T10:06:10.021Z,28.60
2019-06-26T10:08:39.143Z,28.60
2019-06-26T10:11:08.892Z,28.70
2019-06-26T10:13:37.844Z,28.70
2019-06-26T10:16:06.966Z,28.60
2019-06-26T10:18:36.066Z,28.50
2019-06-26T10:23:54.582Z,28.50
2019-06-26T10:26:23.589Z,28.50
2019-06-26T10:28:52.554Z,28.50
2019-06-26T10:31:21.431Z,28.60
2019-06-26T10:33:50.506Z,28.60
2019-06-26T10:36:19.494Z,28.70
2019-06-26T10:38:48.611Z,28.70
2019-06-26T10:41:17.603Z,28.60
2019-06-26T10:43:46.582Z,28.50
2019-06-26T10:46:15.603Z,28.40
2019-06-26T10:48:44.454Z,28.20
2019-06-26T10:51:13.401Z,28.20
2019-06-26T10:54:02.190Z,28.20
2019-06-26T10:56:31.257Z,28.10
2019-06-26T10:59:00.379Z,28.20
2019-06-26T11:01:29.845Z,28.20
2019-06-26T11:03:58.749Z,28.20
2019-06-26T11:06:27.794Z,28.10
2019-06-26T11:08:56.873Z,28.00
2019-06-26T11:11:25.998Z,27.90
2019-06-26T11:13:54.860Z,27.80
2019-06-26T11:16:25.999Z,27.80
2019-06-26T11:18:55.007Z,27.90
2019-06-26T11:21:24.060Z,27.80
2019-06-26T11:23:53.109Z,27.70
2019-06-26T11:26:21.938Z,27.60
2019-06-26T11:28:50.816Z,27.50
2019-06-26T11:31:20.050Z,27.40
2019-06-26T11:33:48.949Z,27.40
2019-06-26T11:36:17.751Z,27.50
2019-06-26T11:38:46.739Z,27.60
2019-06-26T11:41:15.793Z,27.50
2019-06-26T11:43:44.629Z,27.50
2019-06-26T11:46:13.554Z,27.50
2019-06-26T11:48:42.612Z,27.40
2019-06-26T11:51:11.559Z,27.30
2019-06-26T11:53:40.487Z,27.20
2019-06-26T11:56:09.625Z,27.20
2019-06-26T11:58:38.561Z,27.30
2019-06-26T12:01:07.481Z,27.40
2019-06-26T12:03:36.481Z,27.50
2019-06-26T12:06:15.713Z,27.40
2019-06-26T12:08:35.981Z,27.40
2019-06-26T12:11:05.027Z,27.40
2019-06-26T12:13:33.996Z,27.30
2019-06-26T12:16:02.915Z,27.10
2019-06-26T12:18:32.089Z,27.10
2019-06-26T12:21:01.015Z,27.00
2019-06-26T12:23:29.986Z,27.00
2019-06-26T12:25:58.977Z,27.10
2019-06-26T12:28:27.975Z,27.20
2019-06-26T12:30:56.928Z,27.30
2019-06-26T12:33:25.816Z,27.30
2019-06-26T12:35:54.763Z,27.20
2019-06-26T12:38:23.762Z,27.10
2019-06-26T12:40:52.978Z,27.00
2019-06-26T12:43:21.954Z,27.00
2019-06-26T12:45:50.909Z,27.00
2019-06-26T12:48:19.949Z,27.10
2019-06-26T12:50:48.840Z,27.10
2019-06-26T12:53:17.707Z,27.00
2019-06-26T12:55:46.742Z,27.00
2019-06-26T12:58:19.806Z,26.90
2019-06-26T13:00:47.017Z,26.80
2019-06-26T13:03:15.952Z,26.90
2019-06-26T13:05:44.992Z,26.80
2019-06-26T13:08:13.849Z,26.80
2019-06-26T13:10:49.476Z,26.90
2019-06-26T13:13:13.343Z,26.80
2019-06-26T13:15:42.256Z,26.80
2019-06-26T13:18:11.358Z,26.80
2019-06-26T13:20:52.183Z,26.80
2019-06-26T13:23:14.641Z,26.70
2019-06-26T13:25:41.805Z,26.70
2019-06-26T13:28:10.927Z,26.60
2019-06-26T13:30:40.106Z,26.60
2019-06-26T13:33:09.005Z,26.50
2019-06-26T13:35:37.902Z,26.40
2019-06-26T13:38:06.690Z,26.30
2019-06-26T13:40:35.684Z,26.30
2019-06-26T13:43:04.433Z,26.20
2019-06-26T13:45:33.336Z,26.20
2019-06-26T13:48:02.488Z,26.20
2019-06-26T13:50:31.469Z,26.20
2019-06-26T13:53:00.288Z,26.20
2019-06-26T13:55:29.217Z,26.00
2019-06-26T13:57:58.219Z,26.00
2019-06-26T14:00:27.130Z,25.90
2019-06-26T14:02:56.175Z,25.90
2019-06-26T14:05:25.136Z,25.80
2019-06-26T14:07:54.103Z,25.80
2019-06-26T14:10:22.991Z,25.70
2019-06-26T14:12:51.973Z,25.70
2019-06-26T14:15:21.124Z,25.70
2019-06-26T14:17:50.581Z,25.70
2019-06-26T14:20:20.698Z,25.60
2019-06-26T14:22:49.812Z,25.70
2019-06-26T14:25:18.925Z,25.60
2019-06-26T14:27:47.816Z,25.50
2019-06-26T14:30:17.402Z,25.40
2019-06-26T14:32:46.489Z,25.30
2019-06-26T14:35:15.548Z,25.30
2019-06-26T14:37:44.566Z,25.40
2019-06-26T14:40:13.906Z,25.40
2019-06-26T14:42:42.981Z,25.30
2019-06-26T14:45:12.048Z,25.30
2019-06-26T14:47:40.848Z,25.30
2019-06-26T14:50:10.069Z,25.30
2019-06-26T14:52:39.157Z,25.30
2019-06-26T14:55:08.346Z,25.10
2019-06-26T14:57:37.397Z,25.10
2019-06-26T15:00:07.190Z,25.10
2019-06-26T15:02:36.189Z,25.20
2019-06-26T15:05:05.534Z,25.20
2019-06-26T15:07:34.606Z,25.30
2019-06-26T15:10:03.558Z,25.30
2019-06-26T15:12:32.514Z,25.30
2019-06-26T15:15:01.335Z,25.30
2019-06-26T15:17:30.358Z,25.10
2019-06-26T15:19:59.239Z,25.00
2019-06-26T15:22:28.136Z,25.00
2019-06-26T15:24:57.947Z,25.00
2019-06-26T15:27:27.030Z,24.90
2019-06-26T15:29:56.610Z,24.80
2019-06-26T15:32:25.638Z,24.70
2019-06-26T15:34:54.715Z,24.60
2019-06-26T15:37:23.964Z,24.60
2019-06-26T15:39:53.002Z,24.50
2019-06-26T15:42:21.900Z,24.40
2019-06-26T15:47:38.930Z,24.20
2019-06-26T15:50:10.672Z,24.10
2019-06-26T15:52:39.587Z,24.10
2019-06-26T15:55:08.933Z,24.00
2019-06-26T15:57:38.070Z,24.10
2019-06-26T16:00:07.581Z,24.00
2019-06-26T16:02:36.678Z,23.90
2019-06-26T16:05:05.878Z,23.80
2019-06-26T16:07:34.840Z,23.60
2019-06-26T16:10:04.022Z,23.50
2019-06-26T16:12:32.958Z,23.40
2019-06-26T16:15:01.778Z,23.40
2019-06-26T16:18:05.075Z,23.40
2019-06-26T16:20:33.962Z,23.50
2019-06-26T16:23:02.940Z,23.40
2019-06-26T16:25:32.605Z,23.30
2019-06-26T16:28:05.885Z,23.10
2019-06-26T16:30:32.192Z,23.00
2019-06-26T16:33:01.066Z,23.10
2019-06-26T16:35:30.170Z,23.10
2019-06-26T16:37:59.176Z,23.00
2019-06-26T16:40:28.256Z,23.00
2019-06-26T16:42:57.308Z,23.20
2019-06-26T16:45:26.371Z,23.00
2019-06-26T16:47:55.330Z,22.90
2019-06-26T16:50:24.239Z,22.80
2019-06-26T16:52:53.195Z,22.50
2019-06-26T16:55:22.431Z,22.20
2019-06-26T16:57:51.372Z,22.10
2019-06-26T17:00:20.399Z,22.10
2019-06-26T17:02:49.451Z,22.10
2019-06-26T17:05:18.557Z,22.10
2019-06-26T17:07:47.442Z,22.10
2019-06-26T17:10:16.470Z,22.00
2019-06-26T17:12:45.351Z,22.00
2019-06-26T17:15:14.361Z,21.90
2019-06-26T17:17:43.939Z,21.70
2019-06-26T17:20:13.214Z,21.60
2019-06-26T17:22:42.018Z,21.50
2019-06-26T17:25:11.924Z,21.40
2019-06-26T17:27:41.660Z,21.30
2019-06-26T17:30:11.930Z,21.30
2019-06-26T17:32:41.294Z,21.30
2019-06-26T17:35:11.089Z,21.30
2019-06-26T17:37:40.015Z,21.30
2019-06-26T17:40:09.439Z,21.10
2019-06-26T17:42:38.443Z,21.00
2019-06-26T17:45:08.111Z,20.90
2019-06-26T17:47:37.228Z,20.80
2019-06-26T17:50:06.500Z,20.80
2019-06-26T17:52:38.232Z,20.70
2019-06-26T17:55:06.764Z,20.70
2019-06-26T17:57:35.875Z,20.60
2019-06-26T18:00:07.551Z,20.50
2019-06-26T18:02:36.444Z,20.50
2019-06-26T18:05:05.775Z,20.50
2019-06-26T18:07:34.777Z,20.40
2019-06-26T18:10:03.965Z,20.40
2019-06-26T18:12:32.956Z,20.30
2019-06-26T18:15:03.789Z,20.30
2019-06-26T18:17:32.882Z,20.20
2019-06-26T18:20:02.001Z,20.20
2019-06-26T18:22:31.388Z,20.10
2019-06-26T18:25:00.583Z,20.00
2019-06-26T18:27:29.824Z,20.10
2019-06-26T18:29:59.127Z,20.10
2019-06-26T18:32:29.318Z,20.00
2019-06-26T18:34:59.813Z,19.90
2019-06-26T18:37:29.119Z,19.90
2019-06-26T18:39:59.955Z,19.90
2019-06-26T18:42:29.110Z,19.90
2019-06-26T18:44:58.157Z,19.90
2019-06-26T18:47:27.224Z,19.90
2019-06-26T18:53:10.824Z,19.60
2019-06-26T18:58:47.955Z,19.30
2019-06-26T19:01:27.255Z,19.10
2019-06-26T19:04:05.282Z,19.10
2019-06-26T19:06:38.306Z,19.00
2019-06-26T19:09:09.879Z,18.90
2019-06-26T19:11:46.470Z,18.80
2019-06-26T19:14:17.732Z,18.70
2019-06-26T19:17:00.603Z,18.70
2019-06-26T19:19:29.706Z,18.70
2019-06-26T19:21:58.705Z,18.70
2019-06-26T19:24:27.549Z,18.70
2019-06-26T19:26:56.491Z,18.70
2019-06-26T19:29:25.431Z,18.70
2019-06-26T19:32:41.310Z,18.70
2019-06-26T19:35:18.658Z,18.70
2019-06-26T19:37:46.208Z,18.70
2019-06-26T19:40:34.310Z,18.70
2019-06-26T19:43:32.953Z,18.60
2019-06-26T19:46:10.295Z,18.50
2019-06-26T19:48:46.407Z,18.40
2019-06-26T19:51:15.380Z,18.30
2019-06-26T19:53:44.632Z,18.30
2019-06-26T19:56:14.709Z,18.10
2019-06-26T19:58:45.003Z,18.20
2019-06-26T20:01:13.927Z,18.20
2019-06-26T20:03:42.835Z,18.20
2019-06-26T20:06:11.940Z,18.20
2019-06-26T20:08:52.261Z,18.20
2019-06-26T20:11:12.840Z,18.20
2019-06-26T20:13:41.766Z,18.20
2019-06-26T20:16:11.056Z,18.10
2019-06-26T20:18:40.114Z,18.10
2019-06-26T20:21:09.201Z,18.00
2019-06-26T20:23:38.142Z,17.90
2019-06-26T20:26:07.296Z,17.90
2019-06-26T20:28:36.336Z,17.90
2019-06-26T20:31:05.518Z,18.00
2019-06-26T20:33:34.627Z,18.00
2019-06-26T20:36:04.268Z,17.90
2019-06-26T20:38:33.417Z,17.90
2019-06-26T20:41:02.357Z,17.90
2019-06-26T20:43:31.363Z,17.80
2019-06-26T20:46:00.301Z,17.80
2019-06-26T20:48:29.371Z,17.80
2019-06-26T20:50:58.382Z,17.90
2019-06-26T20:53:28.068Z,18.00
2019-06-26T20:55:56.989Z,18.00
2019-06-26T20:58:26.050Z,17.90
2019-06-26T21:00:54.937Z,17.90
2019-06-26T21:03:23.797Z,17.90
2019-06-26T21:05:52.754Z,17.90
2019-06-26T21:08:21.551Z,17.90
2019-06-26T21:10:50.521Z,17.90
2019-06-26T21:13:19.480Z,18.00
2019-06-26T21:15:48.264Z,17.90
2019-06-26T21:18:17.205Z,17.80
2019-06-26T21:20:47.564Z,17.70
2019-06-26T21:23:18.868Z,17.70
2019-06-26T21:25:47.735Z,17.60
2019-06-26T21:28:16.617Z,17.50
2019-06-26T21:30:45.471Z,17.40
2019-06-26T21:33:14.343Z,17.40
2019-06-26T21:35:43.282Z,17.30
2019-06-26T21:38:12.254Z,17.20
2019-06-26T21:40:42.724Z,17.00
2019-06-26T21:43:11.504Z,17.00
2019-06-26T21:45:40.363Z,17.00
2019-06-26T21:48:09.401Z,16.90
2019-06-26T21:50:38.207Z,16.90
2019-06-26T21:53:07.527Z,16.90
2019-06-26T21:55:36.386Z,16.90
2019-06-26T21:58:05.238Z,16.80
2019-06-26T22:00:36.744Z,16.80
2019-06-26T22:03:05.988Z,16.70
2019-06-26T22:05:34.804Z,16.70
2019-06-26T22:08:03.726Z,16.70
2019-06-26T22:10:32.718Z,16.60
2019-06-26T22:13:01.519Z,16.60
2019-06-26T22:15:30.424Z,16.60
2019-06-26T22:17:59.322Z,16.50
2019-06-26T22:20:28.170Z,16.60
2019-06-26T22:22:56.987Z,16.60
2019-06-26T22:25:26.985Z,16.70
2019-06-26T22:27:55.862Z,16.60
2019-06-26T22:30:24.916Z,16.60
2019-06-26T22:32:53.703Z,16.60
2019-06-26T22:35:22.506Z,16.50
2019-06-26T22:37:51.284Z,16.60
2019-06-26T22:40:20.310Z,16.60
2019-06-26T22:42:49.168Z,16.60
2019-06-26T22:45:18.141Z,16.60
2019-06-26T22:47:46.981Z,16.50
2019-06-26T22:50:16.040Z,16.40
2019-06-26T22:52:44.842Z,16.40
2019-06-26T22:55:14.168Z,16.30
2019-06-26T22:57:43.002Z,16.30
2019-06-26T23:00:14.205Z,16.30
2019-06-26T23:02:42.996Z,16.30
2019-06-26T23:05:11.925Z,16.30
2019-06-26T23:07:40.745Z,16.20
2019-06-26T23:10:11.469Z,16.30
2019-06-26T23:12:40.344Z,16.20
2019-06-26T23:15:09.665Z,16.20
2019-06-26T23:17:38.415Z,16.30
2019-06-26T23:20:07.507Z,16.30
2019-06-26T23:22:36.392Z,16.20
2019-06-26T23:25:05.536Z,16.20
2019-06-26T23:27:34.646Z,16.10
2019-06-26T23:30:03.482Z,16.00
2019-06-26T23:32:32.503Z,16.00
2019-06-26T23:35:01.467Z,15.80
2019-06-26T23:37:30.299Z,15.80
2019-06-26T23:39:59.344Z,15.80
2019-06-26T23:42:28.223Z,15.70
2019-06-26T23:44:57.013Z,15.60
2019-06-26T23:47:26.057Z,15.50
2019-06-26T23:49:54.831Z,15.60
2019-06-26T23:52:23.617Z,15.50
2019-06-26T23:54:52.470Z,15.50
2019-06-26T23:57:21.293Z,15.50
2019-06-26T23:59:50.093Z,15.60
